This is the latest recevied weather packets stored in our database for station/object N8WEL. If no packets are shown the sender has not sent any weather packets the latest 10 day(s).
| Time | Temp. | Humidity | Pressure | Rain* | Wind** | Luminosity | Snow |
|---|---|---|---|---|---|---|---|
| 1778087985 | 13.89° C | 55% | 1011.8 hPa | 0 mm | - | - | - |
| 1778087385 | 14.44° C | 52% | 1011.8 hPa | 0 mm | - | - | - |
| 1778087085 | 14.44° C | 53% | 1011.7 hPa | 0 mm | - | - | - |
| 1778086785 | 14.44° C | 53% | 1011.7 hPa | 0 mm | - | - | - |
| 1778086485 | 13.89° C | 54% | 1011.6 hPa | 0 mm | - | - | - |
| 1778086185 | 14.44° C | 53% | 1011.4 hPa | 0 mm | - | - | - |
| 1778085885 | 14.44° C | 56% | 1011.4 hPa | 0 mm | - | - | - |
| 1778085409 | 13.89° C | 53% | 1011.7 hPa | 0 mm | - | - | - |
| 1778084809 | 13.89° C | 55% | 1011.7 hPa | 0 mm | - | - | - |
| 1778084510 | 13.33° C | 57% | 1011.7 hPa | 0 mm | - | - | - |
| 1778084209 | 13.33° C | 55% | 1011.5 hPa | 0 mm | - | - | - |
| 1778083912 | 13.33° C | 56% | 1011.4 hPa | 0 mm | - | - | - |
| 1778083609 | 13.33° C | 55% | 1011.6 hPa | 0 mm | - | - | - |
| 1778083309 | 13.33° C | 55% | 1011.8 hPa | 0 mm | - | - | - |
| 1778083008 | 13.33° C | 59% | 1011.8 hPa | 0 mm | - | - | - |
| 1778082709 | 12.78° C | 57% | 1011.8 hPa | 0 mm | - | - | - |
| 1778082409 | 12.78° C | 57% | 1011.8 hPa | 0 mm | - | - | - |
| 1778082109 | 12.78° C | 62% | 1011.6 hPa | 0 mm | - | - | - |
| 1778081854 | 12.22° C | 62% | 1011.5 hPa | 0 mm | - | - | - |
| 1778081508 | 12.22° C | 62% | 1011.2 hPa | 0 mm | - | - | - |
| 1778081220 | 11.67° C | 61% | 1011 hPa | 0 mm | - | - | - |
| 1778080827 | 7.22° C | 89% | 1009.7 hPa | 0 mm | - | - | - |
| 1778080826 | 7.22° C | 90% | 1009.7 hPa | 0 mm | - | - | - |
| 1778080825 | 7.22° C | 91% | 1009.4 hPa | 0 mm | - | - | - |
| 1778069552 | 6.67° C | 91% | 1009.3 hPa | 0 mm | - | - | - |
* Rain latest hour (hover to see other rain measurements)
** Current wind speed in m/s (hover to see current wind gust speed)